Time;durP1;ratioP1;P1;durP2;ratioP2;P2;SDS_P1;SDS_P2;PMS_P1;PMS_P2;Temp;Humidity;BMP_temperature;BMP_pressure;BME280_temperature;BME280_humidity;BME280_pressure;Samples;Min_cycle;Max_cycle;Signal;HPM_P1;HPM_P2
2024/01/31 00:00:09;;;;;;;24.70;18.02;;;11.00;73.80;;;;;;5071403;28;20068;-55
2024/01/31 00:02:37;;;;;;;26.25;19.30;;;11.00;74.00;;;;;;5069145;28;20048;-54
2024/01/31 00:05:04;;;;;;;24.73;18.27;;;11.00;74.00;;;;;;5077225;28;20071;-55
2024/01/31 00:07:34;;;;;;;26.65;18.67;;;11.00;74.10;;;;;;5075938;28;20513;-54
2024/01/31 00:10:01;;;;;;;25.77;19.73;;;11.00;74.10;;;;;;5074186;28;20098;-56
2024/01/31 00:12:28;;;;;;;24.10;17.98;;;11.00;74.20;;;;;;5075730;28;20068;-56
2024/01/31 00:14:57;;;;;;;26.60;19.38;;;11.00;74.20;;;;;;5077969;28;20125;-53
2024/01/31 00:17:26;;;;;;;27.65;19.95;;;11.00;74.30;;;;;;5075306;28;20044;-51
2024/01/31 00:19:53;;;;;;;25.80;18.35;;;11.00;74.40;;;;;;5074057;28;20079;-53
2024/01/31 00:22:20;;;;;;;24.98;18.17;;;11.00;74.30;;;;;;5076001;28;20051;-53
2024/01/31 00:24:46;;;;;;;24.25;17.42;;;11.00;74.30;;;;;;5076311;28;20123;-53
2024/01/31 00:27:13;;;;;;;22.40;17.73;;;11.00;74.30;;;;;;5075275;28;20048;-55
2024/01/31 00:29:39;;;;;;;25.90;19.05;;;11.00;74.40;;;;;;5074005;28;20110;-55
2024/01/31 00:32:09;;;;;;;22.75;17.50;;;11.00;74.40;;;;;;5072892;28;20059;-54
2024/01/31 00:34:35;;;;;;;24.23;17.50;;;11.00;74.40;;;;;;5075967;28;20040;-53
2024/01/31 00:37:02;;;;;;;23.02;16.50;;;11.00;74.40;;;;;;5076620;28;20044;-55
2024/01/31 00:39:31;;;;;;;25.27;18.00;;;11.00;74.40;;;;;;5072030;28;20051;-54
2024/01/31 00:41:58;;;;;;;26.13;18.58;;;11.00;74.40;;;;;;5076251;28;20098;-54
2024/01/31 00:44:26;;;;;;;27.23;18.02;;;11.00;74.40;;;;;;5075568;28;20127;-51
2024/01/31 00:46:53;;;;;;;24.77;16.95;;;11.00;74.50;;;;;;5071483;28;20456;-55
2024/01/31 00:49:21;;;;;;;23.02;16.95;;;11.00;74.50;;;;;;5074086;28;20102;-54
2024/01/31 00:51:52;;;;;;;28.25;19.13;;;11.00;74.50;;;;;;5074697;28;20041;-56
2024/01/31 00:54:20;;;;;;;25.40;18.52;;;11.00;74.40;;;;;;5073600;28;20032;-54
2024/01/31 00:56:47;;;;;;;24.48;17.33;;;11.00;74.40;;;;;;5071317;28;20211;-55
2024/01/31 00:59:13;;;;;;;24.83;17.20;;;11.00;74.40;;;;;;5076247;28;20039;-54
2024/01/31 01:01:41;;;;;;;25.08;17.80;;;11.00;74.50;;;;;;5070657;28;20041;-54
2024/01/31 01:04:08;;;;;;;28.52;19.48;;;11.00;74.60;;;;;;5075675;28;20626;-55
2024/01/31 01:06:37;;;;;;;24.67;17.05;;;11.00;74.70;;;;;;5074724;28;20040;-55
2024/01/31 01:09:04;;;;;;;26.80;18.33;;;11.00;74.70;;;;;;5073055;28;20036;-55
2024/01/31 01:11:31;;;;;;;23.58;16.92;;;11.00;74.60;;;;;;5073000;28;20033;-52
2024/01/31 01:13:57;;;;;;;27.27;18.38;;;11.00;74.60;;;;;;5074186;28;20039;-54
2024/01/31 01:16:24;;;;;;;26.25;18.63;;;11.10;74.70;;;;;;5070430;28;20460;-53
2024/01/31 01:18:51;;;;;;;27.02;18.23;;;11.00;74.70;;;;;;5074025;28;20040;-52
2024/01/31 01:21:18;;;;;;;27.15;17.48;;;11.10;74.80;;;;;;5074389;28;20444;-55
2024/01/31 01:23:44;;;;;;;29.73;19.63;;;11.00;74.70;;;;;;5073234;28;20093;-54
2024/01/31 01:26:12;;;;;;;26.33;19.00;;;11.10;74.70;;;;;;5073228;28;20116;-54
2024/01/31 01:28:39;;;;;;;25.67;17.48;;;11.00;74.70;;;;;;5073428;28;20041;-56
2024/01/31 01:31:06;;;;;;;26.27;18.35;;;11.10;74.80;;;;;;5070632;28;20037;-54
2024/01/31 01:33:32;;;;;;;27.77;18.83;;;11.00;74.80;;;;;;5073398;28;20112;-55
2024/01/31 01:35:59;;;;;;;26.50;16.92;;;11.00;75.40;;;;;;5073541;28;20055;-53
2024/01/31 01:38:26;;;;;;;27.33;19.00;;;11.00;74.70;;;;;;5072914;28;20498;-54
2024/01/31 01:40:53;;;;;;;26.50;19.00;;;11.00;74.80;;;;;;5069542;28;20036;-55
2024/01/31 01:43:20;;;;;;;26.27;17.83;;;11.00;74.80;;;;;;5072742;28;20043;-56
2024/01/31 01:45:47;;;;;;;29.75;19.10;;;11.00;74.80;;;;;;5072598;28;20089;-54
2024/01/31 01:48:17;;;;;;;29.77;19.80;;;11.00;74.80;;;;;;5070781;28;20051;-55
2024/01/31 01:50:45;;;;;;;30.70;20.17;;;11.00;74.80;;;;;;5072203;28;20040;-55
2024/01/31 01:53:14;;;;;;;29.05;19.63;;;11.00;74.80;;;;;;5071786;28;20498;-53
2024/01/31 01:55:42;;;;;;;32.40;18.67;;;10.90;74.80;;;;;;5070845;28;20098;-52
2024/01/31 01:58:12;;;;;;;29.08;18.90;;;10.90;74.90;;;;;;5072422;28;20056;-52
2024/01/31 02:00:42;;;;;;;28.58;19.58;;;10.90;74.90;;;;;;5070544;28;20051;-56
2024/01/31 02:03:09;;;;;;;29.35;20.20;;;10.90;75.10;;;;;;5070928;28;20041;-55
2024/01/31 02:05:38;;;;;;;29.75;19.30;;;10.90;75.10;;;;;;5071391;28;20402;-53
2024/01/31 02:08:06;;;;;;;28.13;19.63;;;10.90;75.30;;;;;;5071428;28;20039;-52
2024/01/31 02:10:33;;;;;;;32.30;20.45;;;10.90;75.20;;;;;;5069991;28;20037;-54
2024/01/31 02:13:00;;;;;;;25.10;18.05;;;10.90;75.30;;;;;;5070353;28;20111;-56
2024/01/31 02:15:26;;;;;;;29.65;19.13;;;10.80;75.40;;;;;;5071232;28;20124;-51
2024/01/31 02:17:53;;;;;;;27.27;18.88;;;10.80;75.50;;;;;;5070700;28;20037;-55
2024/01/31 02:20:21;;;;;;;29.55;20.17;;;10.80;75.50;;;;;;5069691;28;20593;-55
2024/01/31 02:22:50;;;;;;;23.58;16.67;;;10.80;75.50;;;;;;5070316;28;20093;-55
2024/01/31 02:25:17;;;;;;;23.80;16.58;;;10.80;75.40;;;;;;5070917;28;20521;-55
2024/01/31 02:27:45;;;;;;;20.60;14.00;;;10.70;75.20;;;;;;5069969;28;20040;-55
2024/01/31 02:30:12;;;;;;;20.08;14.23;;;10.80;75.20;;;;;;5069180;28;20060;-55
2024/01/31 02:32:41;;;;;;;20.50;13.70;;;10.70;75.20;;;;;;5067949;28;20090;-54
2024/01/31 02:35:08;;;;;;;18.25;12.68;;;10.70;75.30;;;;;;5079320;28;20036;-56
2024/01/31 02:37:34;;;;;;;20.10;12.48;;;10.70;75.40;;;;;;5090768;28;20040;-54
2024/01/31 02:40:05;;;;;;;19.02;13.38;;;10.60;75.30;;;;;;5072146;28;20055;-56
2024/01/31 02:42:32;;;;;;;18.58;12.52;;;10.60;75.40;;;;;;5074751;28;20068;-53
2024/01/31 02:45:00;;;;;;;19.45;12.95;;;10.60;75.40;;;;;;5090039;28;20147;-55
2024/01/31 02:47:26;;;;;;;17.73;11.40;;;10.60;75.50;;;;;;5086553;28;20048;-52
2024/01/31 02:49:53;;;;;;;18.45;12.07;;;10.60;75.60;;;;;;5070750;28;20067;-52
2024/01/31 02:52:22;;;;;;;17.65;11.77;;;10.60;75.60;;;;;;5088148;28;20055;-55
2024/01/31 02:54:51;;;;;;;18.50;12.07;;;10.60;75.70;;;;;;5083772;28;20036;-56
2024/01/31 02:57:18;;;;;;;15.40;10.98;;;10.60;75.70;;;;;;5079457;28;20490;-54
2024/01/31 02:59:45;;;;;;;20.00;12.43;;;10.60;75.70;;;;;;5081601;28;20109;-55
2024/01/31 03:02:19;;;;;;;16.75;10.45;;;10.60;75.70;;;;;;5071340;28;20083;-56
2024/01/31 03:04:48;;;;;;;16.25;11.38;;;10.60;75.90;;;;;;5077884;28;20048;-52
2024/01/31 03:07:17;;;;;;;14.33;10.27;;;10.60;75.80;;;;;;5088920;28;20127;-56
2024/01/31 03:09:45;;;;;;;15.90;9.88;;;10.60;75.80;;;;;;5074173;28;20842;-53
2024/01/31 03:12:11;;;;;;;17.02;9.63;;;10.60;75.80;;;;;;5080535;28;20440;-55
2024/01/31 03:14:38;;;;;;;13.80;9.00;;;10.60;75.70;;;;;;5089055;28;20043;-52
2024/01/31 03:17:05;;;;;;;15.15;9.73;;;10.60;75.70;;;;;;5064355;28;20068;-54
2024/01/31 03:19:32;;;;;;;12.65;8.48;;;10.60;75.70;;;;;;5069693;28;20040;-55
2024/01/31 03:21:59;;;;;;;11.60;8.05;;;10.60;75.70;;;;;;5068986;28;20047;-56
2024/01/31 03:24:28;;;;;;;13.57;8.40;;;10.60;75.60;;;;;;5069126;28;20124;-55
2024/01/31 03:26:55;;;;;;;17.73;9.13;;;10.70;75.50;;;;;;5068554;28;20107;-53
2024/01/31 03:29:22;;;;;;;11.82;7.13;;;10.60;75.40;;;;;;5078307;28;20048;-55
2024/01/31 03:31:49;;;;;;;13.70;8.02;;;10.60;75.40;;;;;;5073031;28;20466;-55
2024/01/31 03:34:18;;;;;;;13.98;8.18;;;10.60;75.40;;;;;;5069722;28;20080;-52
2024/01/31 03:36:44;;;;;;;12.25;7.22;;;10.60;75.40;;;;;;5080890;28;20040;-55
2024/01/31 03:39:12;;;;;;;12.30;8.10;;;10.60;75.40;;;;;;5086002;28;20071;-53
2024/01/31 03:41:45;;;;;;;13.70;7.57;;;10.60;75.40;;;;;;5070788;28;20032;-53
2024/01/31 03:44:14;;;;;;;12.57;8.00;;;10.70;75.50;;;;;;5082459;28;20036;-54
2024/01/31 03:46:41;;;;;;;13.68;8.35;;;10.60;75.40;;;;;;5087787;28;20060;-55
2024/01/31 03:49:08;;;;;;;14.25;7.93;;;10.60;75.40;;;;;;5086957;28;20115;-54
2024/01/31 03:51:35;;;;;;;12.57;7.38;;;10.60;75.40;;;;;;5069783;28;20105;-53
2024/01/31 03:54:01;;;;;;;12.82;8.00;;;10.60;75.30;;;;;;5074375;28;20040;-54
2024/01/31 03:56:31;;;;;;;10.00;7.65;;;10.60;75.30;;;;;;5086712;28;20093;-55
2024/01/31 03:58:57;;;;;;;12.32;7.35;;;10.60;75.30;;;;;;5072222;28;20401;-55
2024/01/31 04:01:25;;;;;;;10.75;7.20;;;10.60;75.30;;;;;;5074041;28;20067;-56
2024/01/31 04:03:54;;;;;;;11.27;6.60;;;10.60;75.30;;;;;;5079564;28;20446;-52
2024/01/31 04:06:23;;;;;;;10.57;7.10;;;10.60;75.40;;;;;;5085058;28;20116;-54
2024/01/31 04:08:50;;;;;;;10.05;7.18;;;10.60;75.30;;;;;;5086510;28;20036;-53
2024/01/31 04:11:19;;;;;;;13.82;7.75;;;10.60;75.30;;;;;;5069003;28;20109;-54
2024/01/31 04:13:48;;;;;;;13.40;7.68;;;10.60;75.30;;;;;;5082809;28;20551;-54
2024/01/31 04:16:16;;;;;;;10.27;7.10;;;10.60;75.30;;;;;;5083258;28;20105;-52
2024/01/31 04:18:43;;;;;;;12.32;6.78;;;10.60;75.30;;;;;;5069923;28;20047;-55
2024/01/31 04:21:10;;;;;;;10.20;7.05;;;10.50;75.20;;;;;;5082233;28;20032;-56
2024/01/31 04:23:36;;;;;;;9.32;7.00;;;10.60;75.40;;;;;;5085748;28;20123;-54
2024/01/31 04:26:07;;;;;;;13.13;7.78;;;10.60;75.40;;;;;;5073476;28;20040;-55
2024/01/31 04:28:36;;;;;;;12.90;7.32;;;10.60;75.40;;;;;;5083616;28;20040;-53
2024/01/31 04:31:02;;;;;;;9.27;6.50;;;10.50;75.30;;;;;;5077703;28;20037;-55
2024/01/31 04:33:29;;;;;;;13.48;8.52;;;10.60;75.40;;;;;;5077654;28;20049;-55
2024/01/31 04:35:56;;;;;;;10.25;7.45;;;10.60;75.40;;;;;;5079686;28;20044;-52
2024/01/31 04:38:26;;;;;;;9.38;6.93;;;10.50;75.30;;;;;;5067622;28;20056;-53
2024/01/31 04:40:54;;;;;;;10.07;7.97;;;10.60;75.40;;;;;;5079358;28;20493;-52
2024/01/31 04:43:24;;;;;;;13.07;8.00;;;10.60;75.40;;;;;;5082549;28;20506;-54
2024/01/31 04:45:52;;;;;;;12.02;7.90;;;10.60;75.30;;;;;;5083608;28;20040;-54
2024/01/31 04:48:18;;;;;;;13.02;6.90;;;10.50;75.30;;;;;;5077990;28;20101;-52
2024/01/31 04:50:51;;;;;;;10.57;6.97;;;10.50;75.30;;;;;;5074521;28;20484;-53
2024/01/31 04:53:18;;;;;;;9.80;6.90;;;10.50;75.40;;;;;;5085751;28;20098;-52
2024/01/31 04:55:47;;;;;;;10.95;7.38;;;10.50;75.20;;;;;;5080184;28;20043;-54
2024/01/31 04:58:13;;;;;;;11.70;8.00;;;10.50;75.10;;;;;;5072429;28;20046;-55
2024/01/31 05:00:41;;;;;;;10.98;7.35;;;10.50;75.20;;;;;;5075048;28;20057;-53
2024/01/31 05:03:15;;;;;;;9.13;6.50;;;10.50;75.20;;;;;;5084226;28;20044;-55
2024/01/31 05:05:42;;;;;;;11.45;7.10;;;10.50;75.30;;;;;;5087741;28;20058;-55
2024/01/31 05:08:13;;;;;;;12.55;7.53;;;10.50;75.40;;;;;;5086723;28;20040;-54
2024/01/31 05:10:44;;;;;;;12.60;8.10;;;10.50;75.40;;;;;;5076511;28;20660;-55
2024/01/31 05:13:12;;;;;;;13.30;7.63;;;10.50;75.40;;;;;;5081250;28;20043;-52
2024/01/31 05:15:44;;;;;;;10.05;6.97;;;10.50;75.30;;;;;;5087365;28;20482;-55
2024/01/31 05:18:11;;;;;;;9.55;6.05;;;10.50;75.40;;;;;;5094185;28;20489;-54
2024/01/31 05:20:38;;;;;;;13.73;7.25;;;10.50;75.30;;;;;;5079628;28;20512;-55
2024/01/31 05:23:05;;;;;;;10.52;6.30;;;10.50;75.20;;;;;;5073539;28;20094;-51
2024/01/31 05:25:32;;;;;;;9.80;5.72;;;10.50;75.30;;;;;;5067745;28;20051;-53
2024/01/31 05:27:59;;;;;;;9.43;5.78;;;10.50;75.20;;;;;;5079872;28;20059;-55
2024/01/31 05:30:26;;;;;;;10.10;6.43;;;10.50;75.20;;;;;;5073002;28;20127;-54
2024/01/31 05:32:52;;;;;;;9.25;6.65;;;10.50;75.30;;;;;;5077328;28;20047;-52
2024/01/31 05:35:20;;;;;;;10.07;6.10;;;10.40;75.20;;;;;;5083647;28;20050;-55
2024/01/31 05:37:49;;;;;;;9.82;6.68;;;10.40;75.20;;;;;;5075307;28;20048;-54
2024/01/31 05:40:16;;;;;;;14.00;7.40;;;10.40;75.20;;;;;;5075985;28;20126;-52
2024/01/31 05:42:43;;;;;;;11.68;7.38;;;10.40;75.30;;;;;;5078870;28;20090;-54
2024/01/31 05:45:11;;;;;;;11.85;8.02;;;10.40;75.20;;;;;;5087819;28;20048;-57
2024/01/31 05:47:38;;;;;;;11.48;6.97;;;10.40;75.20;;;;;;5080335;28;20127;-56
2024/01/31 05:50:05;;;;;;;14.35;7.78;;;10.40;75.20;;;;;;5081512;28;20047;-56
2024/01/31 05:52:32;;;;;;;12.70;7.60;;;10.40;75.20;;;;;;5071509;28;20047;-55
2024/01/31 05:55:00;;;;;;;12.15;8.07;;;10.40;75.20;;;;;;5068210;28;20043;-56
2024/01/31 05:57:27;;;;;;;13.10;8.32;;;10.40;75.30;;;;;;5079230;28;20544;-55
2024/01/31 05:59:54;;;;;;;10.75;7.55;;;10.40;75.30;;;;;;5072645;28;20131;-56
2024/01/31 06:02:20;;;;;;;16.33;9.40;;;10.40;75.30;;;;;;5070380;28;20048;-56
2024/01/31 06:04:47;;;;;;;15.35;8.52;;;10.40;75.40;;;;;;5079291;28;20036;-56
2024/01/31 06:07:14;;;;;;;11.43;7.60;;;10.40;75.40;;;;;;5079684;28;20504;-55
2024/01/31 06:09:41;;;;;;;12.90;8.02;;;10.40;75.40;;;;;;5074173;28;20047;-56
2024/01/31 06:12:07;;;;;;;12.23;7.13;;;10.40;75.40;;;;;;5078886;28;20110;-56
2024/01/31 06:14:37;;;;;;;9.55;7.10;;;10.40;75.40;;;;;;5074084;28;20391;-56
2024/01/31 06:17:04;;;;;;;14.70;8.40;;;10.40;75.80;;;;;;5072243;28;20537;-55
2024/01/31 06:19:31;;;;;;;13.02;8.98;;;10.40;75.40;;;;;;5079472;28;20785;-55
2024/01/31 06:21:58;;;;;;;17.40;10.85;;;10.40;75.40;;;;;;5079091;28;20048;-56
2024/01/31 06:24:24;;;;;;;14.13;9.32;;;10.40;75.40;;;;;;5079039;28;20075;-56
2024/01/31 06:26:51;;;;;;;15.80;11.05;;;10.40;75.40;;;;;;5067432;28;20075;-55
2024/01/31 06:29:18;;;;;;;15.55;11.30;;;10.40;75.30;;;;;;5076477;28;20107;-52
2024/01/31 06:31:47;;;;;;;14.88;9.82;;;10.40;75.20;;;;;;5070913;28;20041;-56
2024/01/31 06:34:15;;;;;;;15.00;9.30;;;10.30;75.20;;;;;;5080054;28;20055;-56
2024/01/31 06:36:42;;;;;;;13.52;8.85;;;10.30;75.20;;;;;;5080180;28;20044;-55
2024/01/31 06:39:10;;;;;;;10.68;7.20;;;10.30;75.20;;;;;;5073938;28;20120;-54
2024/01/31 06:41:37;;;;;;;13.05;8.05;;;10.30;75.30;;;;;;5071310;28;20121;-55
2024/01/31 06:44:04;;;;;;;10.88;7.43;;;10.30;75.30;;;;;;5079656;28;20105;-56
2024/01/31 06:46:31;;;;;;;13.80;6.57;;;10.30;75.30;;;;;;5078045;28;20110;-54
2024/01/31 06:49:00;;;;;;;14.38;7.78;;;10.30;75.30;;;;;;5071225;28;20438;-54
2024/01/31 06:51:27;;;;;;;11.02;7.18;;;10.30;75.30;;;;;;5072465;28;20041;-56
2024/01/31 06:53:54;;;;;;;17.35;7.95;;;10.30;75.40;;;;;;5071851;28;20459;-56
2024/01/31 06:56:23;;;;;;;12.38;7.65;;;10.30;75.40;;;;;;5075814;28;20098;-55
2024/01/31 06:58:51;;;;;;;13.30;7.85;;;10.30;75.30;;;;;;5062785;28;20052;-55
2024/01/31 07:01:18;;;;;;;12.43;7.38;;;10.30;75.30;;;;;;5071242;28;20524;-55
2024/01/31 07:03:45;;;;;;;10.43;6.50;;;10.30;75.40;;;;;;5077271;28;20044;-56
2024/01/31 07:06:13;;;;;;;10.93;6.90;;;10.30;75.30;;;;;;5066886;28;20052;-56
2024/01/31 07:08:42;;;;;;;11.10;7.95;;;10.30;75.20;;;;;;5069827;28;20501;-56
2024/01/31 07:11:09;;;;;;;11.15;6.88;;;10.30;75.20;;;;;;5079992;28;20039;-56
2024/01/31 07:13:38;;;;;;;11.73;7.38;;;10.30;75.30;;;;;;5078178;28;20052;-55
2024/01/31 07:16:09;;;;;;;13.30;7.88;;;10.30;75.40;;;;;;5071462;28;20541;-55
2024/01/31 07:18:41;;;;;;;;;;;10.30;75.30;;;;;;5071879;28;20044;-56
2024/01/31 07:21:09;;;;;;;13.68;8.20;;;10.30;75.50;;;;;;5070120;28;19924;-55
2024/01/31 07:23:40;;;;;;;13.23;8.57;;;10.30;75.10;;;;;;5079019;28;20043;-55
2024/01/31 07:26:19;;;;;;;15.80;8.50;;;10.30;75.10;;;;;;5069975;28;20047;-55
2024/01/31 07:28:46;;;;;;;16.33;9.40;;;10.30;75.10;;;;;;5078228;28;20097;-55
2024/01/31 07:31:12;;;;;;;12.40;8.57;;;10.30;75.10;;;;;;5074479;28;20067;-55
2024/01/31 07:33:39;;;;;;;15.07;8.32;;;10.30;75.10;;;;;;5078216;28;20055;-56
2024/01/31 07:36:07;;;;;;;15.10;9.60;;;10.30;75.20;;;;;;5096839;28;20055;-56
2024/01/31 07:38:33;;;;;;;15.88;10.48;;;10.30;75.20;;;;;;5072685;28;20460;-55
2024/01/31 07:41:00;;;;;;;14.02;9.38;;;10.30;75.20;;;;;;5071952;28;20128;-56
2024/01/31 07:43:27;;;;;;;14.98;10.63;;;10.30;75.20;;;;;;5076881;28;20074;-54
2024/01/31 07:45:53;;;;;;;15.55;9.13;;;10.30;75.20;;;;;;5080565;28;20106;-56
2024/01/31 07:48:20;;;;;;;18.13;10.05;;;10.30;75.20;;;;;;5078481;28;20068;-55
2024/01/31 07:50:47;;;;;;;14.35;10.82;;;10.30;75.20;;;;;;5070274;28;20638;-56
2024/01/31 07:53:13;;;;;;;15.60;9.80;;;10.30;75.20;;;;;;5077437;28;20794;-55
2024/01/31 07:55:40;;;;;;;15.82;10.00;;;10.40;75.20;;;;;;5077978;28;20044;-55
2024/01/31 07:58:07;;;;;;;14.48;10.25;;;10.30;75.10;;;;;;5071115;28;20037;-54
2024/01/31 08:00:34;;;;;;;18.80;11.95;;;10.40;75.10;;;;;;5076414;28;20098;-56
2024/01/31 08:03:00;;;;;;;16.13;10.68;;;10.40;75.10;;;;;;5075864;28;20036;-55
2024/01/31 08:05:27;;;;;;;16.98;11.57;;;10.40;75.20;;;;;;5076755;28;20045;-54
2024/01/31 08:07:54;;;;;;;19.98;12.75;;;10.40;75.10;;;;;;5079075;28;20498;-55
2024/01/31 08:10:21;;;;;;;18.45;12.30;;;10.40;75.10;;;;;;5073488;28;20032;-56
2024/01/31 08:12:48;;;;;;;19.85;12.63;;;10.40;75.10;;;;;;5077572;28;20054;-55
2024/01/31 08:15:15;;;;;;;19.35;11.85;;;10.40;75.10;;;;;;5078233;28;20040;-55
2024/01/31 08:17:42;;;;;;;16.85;11.82;;;10.40;75.00;;;;;;5070994;28;20157;-55
2024/01/31 08:20:09;;;;;;;14.98;9.52;;;10.40;75.10;;;;;;5078303;28;20036;-56
2024/01/31 08:22:36;;;;;;;18.50;11.88;;;10.40;75.00;;;;;;5075889;28;20051;-55
2024/01/31 08:25:06;;;;;;;17.38;11.77;;;10.40;75.10;;;;;;5064230;28;20045;-56
2024/01/31 08:27:33;;;;;;;19.60;11.55;;;10.40;75.00;;;;;;5079846;28;20120;-55
2024/01/31 08:30:00;;;;;;;16.08;11.30;;;10.40;75.00;;;;;;5078227;28;20452;-56
2024/01/31 08:32:27;;;;;;;14.60;10.85;;;10.40;74.90;;;;;;5086244;28;20040;-54
2024/01/31 08:34:54;;;;;;;17.73;10.55;;;10.50;75.00;;;;;;5074350;28;20564;-55
2024/01/31 08:37:21;;;;;;;18.45;11.38;;;10.50;75.00;;;;;;5080662;28;20079;-53
2024/01/31 08:39:47;;;;;;;19.27;11.60;;;10.50;75.10;;;;;;5077867;28;20139;-52
2024/01/31 08:42:14;;;;;;;20.17;12.70;;;10.50;75.00;;;;;;5070391;28;20040;-56
2024/01/31 08:44:42;;;;;;;18.55;12.18;;;10.50;75.10;;;;;;5079045;28;20040;-56
2024/01/31 08:47:11;;;;;;;18.45;12.23;;;10.50;75.00;;;;;;5080258;28;20156;-56
2024/01/31 08:49:42;;;;;;;20.10;13.20;;;10.50;74.90;;;;;;5073429;28;20510;-55
2024/01/31 08:52:08;;;;;;;23.92;15.48;;;10.50;75.00;;;;;;5079585;28;20493;-56
2024/01/31 08:54:35;;;;;;;22.40;13.88;;;10.50;75.00;;;;;;5077703;28;20115;-56
2024/01/31 08:57:02;;;;;;;23.75;15.50;;;10.50;75.70;;;;;;5076574;28;20589;-53
2024/01/31 08:59:29;;;;;;;21.20;13.25;;;10.50;75.10;;;;;;5076728;28;20059;-55
2024/01/31 09:01:55;;;;;;;18.38;12.50;;;10.50;75.20;;;;;;5073041;28;20048;-56
2024/01/31 09:04:22;;;;;;;16.88;11.10;;;10.50;75.20;;;;;;5077111;28;20413;-56
2024/01/31 09:06:50;;;;;;;19.30;11.00;;;10.50;75.20;;;;;;5079122;28;20048;-56
2024/01/31 09:09:17;;;;;;;16.77;11.60;;;10.60;75.30;;;;;;5072195;28;20037;-56
2024/01/31 09:11:44;;;;;;;15.77;10.82;;;10.60;75.20;;;;;;5077296;28;20460;-56
2024/01/31 09:14:11;;;;;;;15.45;10.82;;;10.60;75.20;;;;;;5078665;28;20036;-56
2024/01/31 09:16:38;;;;;;;15.77;10.32;;;10.60;75.20;;;;;;5077122;28;20039;-55
2024/01/31 09:19:05;;;;;;;17.83;12.15;;;10.60;75.10;;;;;;5072501;28;20036;-55
2024/01/31 09:21:32;;;;;;;18.20;12.65;;;10.60;75.00;;;;;;5077127;28;20044;-55
2024/01/31 09:23:59;;;;;;;21.75;13.50;;;10.70;75.00;;;;;;5078695;28;20119;-56
2024/01/31 09:26:27;;;;;;;17.23;12.18;;;10.70;75.00;;;;;;5077468;28;20757;-55
2024/01/31 09:28:54;;;;;;;19.25;13.18;;;10.70;75.00;;;;;;5073707;28;20090;-55
2024/01/31 09:31:25;;;;;;;18.27;12.65;;;10.70;75.10;;;;;;5071538;28;20046;-56
2024/01/31 09:33:53;;;;;;;19.58;12.75;;;10.70;75.00;;;;;;5072830;28;20036;-56
2024/01/31 09:36:21;;;;;;;19.73;12.88;;;10.80;75.10;;;;;;5074789;28;20042;-55
2024/01/31 09:38:48;;;;;;;19.83;12.85;;;10.80;75.10;;;;;;5074416;28;20352;-54
2024/01/31 09:41:16;;;;;;;20.55;12.35;;;10.80;75.00;;;;;;5076041;28;20036;-55
2024/01/31 09:43:44;;;;;;;18.45;12.02;;;10.80;75.10;;;;;;5069380;28;20040;-55
2024/01/31 09:46:11;;;;;;;17.65;11.70;;;10.90;75.20;;;;;;5076575;28;20044;-56
2024/01/31 09:48:41;;;;;;;22.95;13.93;;;10.90;75.20;;;;;;5072100;28;20040;-54
2024/01/31 09:51:08;;;;;;;23.58;13.70;;;10.90;75.10;;;;;;5073578;28;20043;-56
2024/01/31 09:53:36;;;;;;;21.48;13.35;;;11.00;75.20;;;;;;5075345;28;20118;-56
2024/01/31 09:56:07;;;;;;;21.83;14.70;;;11.00;75.10;;;;;;5078240;28;20452;-56
2024/01/31 09:58:36;;;;;;;24.17;14.77;;;11.10;75.10;;;;;;5072064;28;20436;-56
2024/01/31 10:01:06;;;;;;;23.40;14.98;;;11.10;75.00;;;;;;5072082;28;20094;-56
2024/01/31 10:03:43;;;;;;;22.30;14.02;;;11.20;75.00;;;;;;5086399;28;20045;-55
2024/01/31 10:06:10;;;;;;;21.90;14.75;;;11.20;74.80;;;;;;5077447;28;20770;-56
2024/01/31 10:08:39;;;;;;;20.17;13.35;;;11.20;74.60;;;;;;5074231;28;20040;-56
2024/01/31 10:11:06;;;;;;;20.77;14.48;;;11.30;74.40;;;;;;5074898;28;20072;-54
2024/01/31 10:13:35;;;;;;;22.85;14.50;;;11.30;74.30;;;;;;5074011;28;20060;-56
2024/01/31 10:16:02;;;;;;;22.35;14.10;;;11.30;74.20;;;;;;5075970;28;20090;-56
2024/01/31 10:18:29;;;;;;;29.20;15.88;;;11.30;74.10;;;;;;5066099;28;20060;-56
2024/01/31 10:20:57;;;;;;;24.98;15.50;;;11.40;74.20;;;;;;5073213;28;20462;-56
2024/01/31 10:23:26;;;;;;;21.63;15.30;;;11.40;74.30;;;;;;5070180;28;20048;-55
2024/01/31 10:25:54;;;;;;;23.33;14.70;;;11.40;74.20;;;;;;5071992;28;20048;-56
2024/01/31 10:28:22;;;;;;;21.30;14.55;;;11.40;74.10;;;;;;5074558;28;20040;-56
2024/01/31 10:30:49;;;;;;;22.73;15.70;;;11.50;74.10;;;;;;5071925;28;20052;-55
2024/01/31 10:33:18;;;;;;;22.90;14.93;;;11.50;74.00;;;;;;5066848;28;20037;-56
2024/01/31 10:35:47;;;;;;;22.77;15.52;;;11.60;74.10;;;;;;5071694;28;20202;-56
2024/01/31 10:38:34;;;;;;;23.50;14.45;;;11.60;73.90;;;;;;5071502;28;20046;-56
2024/01/31 10:41:03;;;;;;;20.73;15.23;;;11.70;73.70;;;;;;5071208;28;20074;-55
2024/01/31 10:43:32;;;;;;;23.77;14.88;;;11.70;73.60;;;;;;5071033;28;20498;-54
2024/01/31 10:45:59;;;;;;;21.00;15.00;;;11.80;73.50;;;;;;5072129;28;20094;-56
2024/01/31 10:48:26;;;;;;;22.55;14.80;;;11.80;73.30;;;;;;5073228;28;20037;-56
2024/01/31 10:50:55;;;;;;;22.73;15.05;;;11.90;73.20;;;;;;5069045;28;20044;-56
2024/01/31 10:53:28;;;;;;;21.88;14.20;;;11.90;73.10;;;;;;5072320;28;20112;-56
2024/01/31 10:55:56;;;;;;;22.17;14.25;;;12.00;72.90;;;;;;5055694;28;20144;-55
2024/01/31 10:58:25;;;;;;;19.38;13.35;;;12.00;72.70;;;;;;5073057;28;20048;-58
2024/01/31 11:00:52;;;;;;;19.08;13.70;;;12.00;72.50;;;;;;5067078;28;20048;-58
2024/01/31 11:03:19;;;;;;;21.00;14.93;;;12.00;72.30;;;;;;5069821;28;20032;-58
2024/01/31 11:05:47;;;;;;;21.60;14.73;;;12.00;72.30;;;;;;5070516;28;20040;-58
2024/01/31 11:08:21;;;;;;;21.08;14.18;;;12.00;72.20;;;;;;5070055;28;20680;-58
2024/01/31 11:10:49;;;;;;;20.00;13.73;;;12.00;71.80;;;;;;5065974;28;20044;-58
2024/01/31 11:13:16;;;;;;;19.67;12.90;;;12.10;71.90;;;;;;5071458;28;20052;-58
2024/01/31 11:15:44;;;;;;;16.65;11.75;;;12.10;71.90;;;;;;5070501;28;20040;-58
2024/01/31 11:18:12;;;;;;;15.73;11.40;;;12.10;71.30;;;;;;5066925;28;20048;-58
2024/01/31 11:20:49;;;;;;;15.82;12.52;;;12.10;70.90;;;;;;5069844;28;20036;-58
2024/01/31 11:23:19;;;;;;;17.38;11.68;;;12.10;70.20;;;;;;5071090;28;20054;-58
2024/01/31 11:25:46;;;;;;;15.80;11.15;;;12.10;70.20;;;;;;5067776;28;20418;-58
2024/01/31 11:28:16;;;;;;;17.65;12.88;;;12.10;69.90;;;;;;5071259;28;20494;-58
2024/01/31 11:30:51;;;;;;;16.95;11.07;;;12.10;69.80;;;;;;5069313;28;20067;-58
2024/01/31 11:33:21;;;;;;;14.90;10.30;;;12.10;69.60;;;;;;5068153;28;20567;-58
2024/01/31 11:35:49;;;;;;;13.45;10.98;;;12.10;69.50;;;;;;5071269;28;20036;-58
2024/01/31 11:38:17;;;;;;;17.08;10.43;;;12.00;69.20;;;;;;5072539;28;20066;-58
2024/01/31 11:40:43;;;;;;;16.48;11.05;;;12.00;68.90;;;;;;5070823;28;20127;-58
2024/01/31 11:43:10;;;;;;;15.52;11.38;;;12.00;68.70;;;;;;5066906;28;20063;-57
2024/01/31 11:45:38;;;;;;;14.13;10.43;;;11.90;68.50;;;;;;5070560;28;20032;-58
2024/01/31 11:48:05;;;;;;;14.55;11.07;;;11.90;68.50;;;;;;5071670;28;20041;-58
2024/01/31 11:50:32;;;;;;;17.02;11.18;;;11.90;68.60;;;;;;5068311;28;20060;-57
2024/01/31 11:53:00;;;;;;;13.35;10.35;;;11.90;68.60;;;;;;5067943;28;20090;-58
2024/01/31 11:55:29;;;;;;;14.43;10.40;;;11.80;68.40;;;;;;5070235;28;20044;-58
2024/01/31 11:57:56;;;;;;;15.43;11.05;;;11.80;68.20;;;;;;5069991;28;20513;-57
2024/01/31 12:00:23;;;;;;;15.38;11.30;;;11.80;68.30;;;;;;5068846;28;20542;-58
2024/01/31 12:02:52;;;;;;;12.00;10.50;;;11.80;68.20;;;;;;5072890;28;20082;-58
2024/01/31 12:05:19;;;;;;;13.60;10.43;;;11.70;68.20;;;;;;5074523;28;20130;-58
2024/01/31 12:07:58;;;;;;;15.98;11.35;;;11.70;68.20;;;;;;5074031;28;20082;-58
2024/01/31 12:10:26;;;;;;;16.30;12.05;;;11.70;68.00;;;;;;5073055;28;20568;-57
2024/01/31 12:12:55;;;;;;;14.90;11.30;;;11.70;68.30;;;;;;5073458;28;20033;-58
2024/01/31 12:15:23;;;;;;;14.07;11.18;;;11.70;68.20;;;;;;5074060;28;20067;-56
2024/01/31 12:17:50;;;;;;;13.40;10.75;;;11.60;68.10;;;;;;5073945;28;20082;-58
2024/01/31 12:20:17;;;;;;;13.35;10.77;;;11.60;68.00;;;;;;5072909;28;20071;-58
2024/01/31 12:22:45;;;;;;;12.88;10.48;;;11.60;68.00;;;;;;5072446;28;20494;-58
2024/01/31 12:25:12;;;;;;;12.70;10.73;;;11.60;68.70;;;;;;5088791;28;20044;-58
2024/01/31 12:27:39;;;;;;;13.93;10.70;;;11.60;67.90;;;;;;5073466;28;20110;-57
2024/01/31 12:30:06;;;;;;;12.70;10.10;;;11.60;67.80;;;;;;5070051;28;20033;-57
2024/01/31 12:32:33;;;;;;;12.43;10.45;;;11.60;67.60;;;;;;5072528;28;20557;-58